createdAt,value
2017-10-18T00:00:12.382Z,19.05
2017-10-18T00:02:39.965Z,16.58
2017-10-18T00:05:07.501Z,14.57
2017-10-18T00:07:35.053Z,16.73
2017-10-18T00:10:02.630Z,21.12
2017-10-18T00:12:30.157Z,18.80
2017-10-18T00:14:58.479Z,18.37
2017-10-18T00:17:26.022Z,17.08
2017-10-18T00:19:53.581Z,13.95
2017-10-18T00:22:22.080Z,16.98
2017-10-18T00:24:50.413Z,17.45
2017-10-18T00:27:17.938Z,13.32
2017-10-18T00:29:45.489Z,14.20
2017-10-18T00:32:13.041Z,14.32
2017-10-18T00:34:40.575Z,16.90
2017-10-18T00:37:08.134Z,16.17
2017-10-18T00:39:35.677Z,21.33
2017-10-18T00:42:03.214Z,17.75
2017-10-18T00:44:30.778Z,17.25
2017-10-18T00:46:58.303Z,16.35
2017-10-18T00:49:26.625Z,18.70
2017-10-18T00:51:54.173Z,17.30
2017-10-18T00:54:22.495Z,21.33
2017-10-18T00:56:50.026Z,20.40
2017-10-18T00:59:17.573Z,12.75
2017-10-18T01:01:45.876Z,14.35
2017-10-18T01:04:13.432Z,19.35
2017-10-18T01:06:41.015Z,16.35
2017-10-18T01:09:08.557Z,17.62
2017-10-18T01:11:36.870Z,16.65
2017-10-18T01:14:04.397Z,17.77
2017-10-18T01:16:32.722Z,12.90
2017-10-18T01:19:00.243Z,15.30
2017-10-18T01:21:28.547Z,16.50
2017-10-18T01:23:56.729Z,11.77
2017-10-18T01:26:24.261Z,16.48
2017-10-18T01:28:51.821Z,13.23
2017-10-18T01:31:19.380Z,12.20
2017-10-18T01:33:46.928Z,20.83
2017-10-18T01:36:15.261Z,22.55
2017-10-18T01:38:42.821Z,13.50
2017-10-18T01:41:10.378Z,11.88
2017-10-18T01:43:37.920Z,15.23
2017-10-18T01:46:06.238Z,15.43
2017-10-18T01:48:33.769Z,16.58
2017-10-18T01:51:01.314Z,20.05
2017-10-18T01:53:28.856Z,17.55
2017-10-18T01:55:57.148Z,13.32
2017-10-18T01:58:24.692Z,16.27
2017-10-18T02:00:52.997Z,14.38
2017-10-18T02:03:20.544Z,17.92
2017-10-18T02:05:48.084Z,15.50
2017-10-18T02:08:16.378Z,15.15
2017-10-18T02:10:43.930Z,18.60
2017-10-18T02:13:11.479Z,16.02
2017-10-18T02:15:39.901Z,15.00
2017-10-18T02:18:07.437Z,16.08
2017-10-18T02:20:34.988Z,16.08
2017-10-18T02:23:03.276Z,15.82
2017-10-18T02:25:30.827Z,12.73
2017-10-18T02:27:58.365Z,13.18
2017-10-18T02:30:26.681Z,12.30
2017-10-18T02:32:54.221Z,12.75
2017-10-18T02:35:21.740Z,13.43
2017-10-18T02:37:49.297Z,15.18
2017-10-18T02:40:16.821Z,12.23
2017-10-18T02:42:44.380Z,15.20
2017-10-18T02:45:11.917Z,11.70
2017-10-18T02:47:39.498Z,11.82
2017-10-18T02:50:07.794Z,14.95
2017-10-18T02:52:35.465Z,14.10
2017-10-18T02:55:03.025Z,15.02
2017-10-18T02:57:30.569Z,15.30
2017-10-18T02:59:58.116Z,15.98
2017-10-18T03:02:26.421Z,13.88
2017-10-18T03:04:54.129Z,16.40
2017-10-18T03:07:21.692Z,14.57
2017-10-18T03:09:50.028Z,13.30
2017-10-18T03:12:17.554Z,13.00
2017-10-18T03:14:45.865Z,16.60
2017-10-18T03:17:13.395Z,13.70
2017-10-18T03:19:41.721Z,12.90
2017-10-18T03:22:09.246Z,11.90
2017-10-18T03:24:36.804Z,13.88
2017-10-18T03:27:04.335Z,15.40
2017-10-18T03:29:32.624Z,13.38
2017-10-18T03:32:00.930Z,14.60
2017-10-18T03:34:28.457Z,12.40
2017-10-18T03:36:56.766Z,12.80
2017-10-18T03:39:24.313Z,14.90
2017-10-18T03:41:51.869Z,15.25
2017-10-18T03:44:19.397Z,13.82
2017-10-18T03:46:48.445Z,15.98
2017-10-18T03:49:15.965Z,12.60
2017-10-18T03:51:44.279Z,12.25
2017-10-18T03:54:11.814Z,16.12
2017-10-18T03:56:40.136Z,12.30
2017-10-18T03:59:07.674Z,17.80
2017-10-18T04:01:35.225Z,13.10
2017-10-18T04:04:02.781Z,13.57
2017-10-18T04:06:31.255Z,12.20
2017-10-18T04:08:59.009Z,14.87
2017-10-18T04:11:27.305Z,14.52
2017-10-18T04:13:54.854Z,19.02
2017-10-18T04:16:22.404Z,13.15
2017-10-18T04:18:52.121Z,15.32
2017-10-18T04:21:20.386Z,17.00
2017-10-18T04:23:47.994Z,15.82
2017-10-18T04:26:16.295Z,16.27
2017-10-18T04:28:43.874Z,13.23
2017-10-18T04:31:13.721Z,17.27
2017-10-18T04:33:41.265Z,12.55
2017-10-18T04:36:08.820Z,13.43
2017-10-18T04:38:36.356Z,11.85
2017-10-18T04:41:03.901Z,13.88
2017-10-18T04:43:31.425Z,15.35
2017-10-18T04:45:59.738Z,12.40
2017-10-18T04:48:27.265Z,14.13
2017-10-18T04:50:55.589Z,15.30
2017-10-18T04:53:24.017Z,12.13
2017-10-18T04:55:51.543Z,13.65
2017-10-18T04:58:19.092Z,12.93
2017-10-18T05:00:46.621Z,12.82
2017-10-18T05:03:14.179Z,14.75
2017-10-18T05:05:42.501Z,13.98
2017-10-18T05:08:10.057Z,12.02
2017-10-18T05:10:37.605Z,13.15
2017-10-18T05:13:05.137Z,11.52
2017-10-18T05:15:33.421Z,13.43
2017-10-18T05:18:00.975Z,16.20
2017-10-18T05:20:28.528Z,14.68
2017-10-18T05:22:56.814Z,15.20
2017-10-18T05:25:24.361Z,12.52
2017-10-18T05:27:52.653Z,11.23
2017-10-18T05:30:20.234Z,12.35
2017-10-18T05:32:47.782Z,15.70
2017-10-18T05:35:15.315Z,10.75
2017-10-18T05:37:43.610Z,15.68
2017-10-18T05:40:11.175Z,14.75
2017-10-18T05:42:38.691Z,11.38
2017-10-18T05:45:06.241Z,14.20
2017-10-18T05:47:33.769Z,13.48
2017-10-18T05:50:01.318Z,11.90
2017-10-18T05:52:28.834Z,9.05
2017-10-18T05:54:56.379Z,14.45
2017-10-18T05:57:23.905Z,10.30
2017-10-18T05:59:51.450Z,12.15
2017-10-18T06:02:18.990Z,15.38
2017-10-18T06:04:47.304Z,14.23
2017-10-18T06:07:14.863Z,11.68
2017-10-18T06:09:42.393Z,11.90
2017-10-18T06:12:10.710Z,13.40
2017-10-18T06:14:38.235Z,13.35
2017-10-18T06:17:05.776Z,10.95
2017-10-18T06:19:34.068Z,16.52
2017-10-18T06:22:02.370Z,9.82
2017-10-18T06:24:29.929Z,16.65
2017-10-18T06:26:57.453Z,12.65
2017-10-18T06:29:25.776Z,11.80
2017-10-18T06:31:53.407Z,9.43
2017-10-18T06:34:20.962Z,14.93
2017-10-18T06:36:49.264Z,10.98
2017-10-18T06:39:16.810Z,11.52
2017-10-18T06:41:44.357Z,12.18
2017-10-18T06:44:12.664Z,11.40
2017-10-18T06:46:40.222Z,17.10
2017-10-18T06:49:07.777Z,16.62
2017-10-18T06:51:35.446Z,10.20
2017-10-18T06:54:02.966Z,9.65
2017-10-18T06:56:31.281Z,17.62
2017-10-18T06:58:58.816Z,11.90
2017-10-18T07:01:27.140Z,12.13
2017-10-18T07:03:54.665Z,8.80
2017-10-18T07:06:22.229Z,11.32
2017-10-18T07:08:49.763Z,9.50
2017-10-18T07:11:18.070Z,11.93
2017-10-18T07:13:45.636Z,11.07
2017-10-18T07:16:13.190Z,11.73
2017-10-18T07:18:40.746Z,13.23
2017-10-18T07:21:08.293Z,13.55
2017-10-18T07:23:35.845Z,12.50
2017-10-18T07:26:04.144Z,12.27
2017-10-18T07:28:31.702Z,13.43
2017-10-18T07:30:59.233Z,8.35
2017-10-18T07:33:27.557Z,15.10
2017-10-18T07:35:55.105Z,13.55
2017-10-18T07:38:22.658Z,16.25
2017-10-18T07:40:50.186Z,16.17
2017-10-18T07:43:18.517Z,12.83
2017-10-18T07:45:46.048Z,11.67
2017-10-18T07:48:13.605Z,18.57
2017-10-18T07:50:41.166Z,16.87
2017-10-18T07:53:08.709Z,14.30
2017-10-18T07:55:37.040Z,21.83
2017-10-18T07:58:04.582Z,12.37
2017-10-18T08:00:32.248Z,13.07
2017-10-18T08:02:59.790Z,10.07
2017-10-18T08:05:27.317Z,11.60
2017-10-18T08:07:54.866Z,15.03
2017-10-18T08:10:22.419Z,13.43
2017-10-18T08:12:50.736Z,11.00
2017-10-18T08:15:19.812Z,11.83
2017-10-18T08:17:48.113Z,12.40
2017-10-18T08:20:15.703Z,11.97
2017-10-18T08:22:43.264Z,11.30
2017-10-18T08:25:10.819Z,13.47
2017-10-18T08:27:38.349Z,14.53
2017-10-18T08:30:05.916Z,11.67
2017-10-18T08:32:33.447Z,12.20
2017-10-18T08:35:01.745Z,13.57
2017-10-18T08:37:29.305Z,9.90
2017-10-18T08:39:57.616Z,11.87
2017-10-18T08:42:25.269Z,15.50
2017-10-18T08:44:52.805Z,11.00
2017-10-18T08:47:21.125Z,12.63
2017-10-18T08:49:48.658Z,10.17
2017-10-18T08:52:16.208Z,10.10
2017-10-18T08:54:43.744Z,9.27
2017-10-18T08:57:12.052Z,8.90
2017-10-18T08:59:39.585Z,8.30
2017-10-18T09:02:07.915Z,9.20
2017-10-18T09:04:35.562Z,9.63
2017-10-18T09:07:03.122Z,10.67
2017-10-18T09:09:30.649Z,11.67
2017-10-18T09:11:58.949Z,8.10
2017-10-18T09:14:26.516Z,8.30
2017-10-18T09:16:54.057Z,8.60
2017-10-18T09:19:21.617Z,12.77
2017-10-18T09:21:49.169Z,9.07
2017-10-18T09:24:17.486Z,9.47
2017-10-18T09:26:45.018Z,7.13
2017-10-18T09:29:12.572Z,7.13
2017-10-18T09:31:40.156Z,6.33
2017-10-18T09:34:07.710Z,10.87
2017-10-18T09:36:35.274Z,6.97
2017-10-18T09:39:02.817Z,11.63
2017-10-18T09:41:30.342Z,6.23
2017-10-18T09:43:59.394Z,6.80
2017-10-18T09:46:26.916Z,6.73
2017-10-18T09:48:55.328Z,6.90
2017-10-18T09:51:22.856Z,6.97
2017-10-18T09:53:51.157Z,7.80
2017-10-18T09:56:18.701Z,6.00
2017-10-18T09:58:46.999Z,9.03
2017-10-18T10:01:14.557Z,5.97
2017-10-18T10:03:42.109Z,8.30
2017-10-18T10:06:09.631Z,5.33
2017-10-18T10:08:37.945Z,5.23
2017-10-18T10:11:05.502Z,7.50
2017-10-18T10:13:33.807Z,7.57
2017-10-18T10:16:01.345Z,7.43
2017-10-18T10:18:28.892Z,6.37
2017-10-18T10:20:56.444Z,4.83
2017-10-18T10:23:24.758Z,4.17
2017-10-18T10:25:52.298Z,4.87
2017-10-18T10:28:19.854Z,4.93
2017-10-18T10:30:47.381Z,4.27
2017-10-18T10:33:15.692Z,4.40
2017-10-18T10:35:43.239Z,3.70
2017-10-18T10:38:10.809Z,3.73
2017-10-18T10:40:38.365Z,3.40
2017-10-18T10:43:05.893Z,3.17
2017-10-18T10:45:33.441Z,5.10
2017-10-18T10:48:00.978Z,3.20
2017-10-18T10:50:28.538Z,3.17
2017-10-18T10:52:56.066Z,3.30
2017-10-18T10:55:23.593Z,3.07
2017-10-18T10:57:51.139Z,3.97
2017-10-18T11:00:18.685Z,4.03
2017-10-18T11:02:46.208Z,6.80
2017-10-18T11:05:13.750Z,4.00
2017-10-18T11:07:42.098Z,3.00
2017-10-18T11:10:09.629Z,3.30
2017-10-18T11:12:37.176Z,6.90
2017-10-18T11:15:04.696Z,3.40
2017-10-18T11:17:33.004Z,4.20
2017-10-18T11:20:00.556Z,2.97
2017-10-18T11:22:28.105Z,4.33
2017-10-18T11:24:56.432Z,3.20
2017-10-18T11:27:23.967Z,4.23
2017-10-18T11:29:51.514Z,4.90
2017-10-18T11:32:19.041Z,4.90
2017-10-18T11:34:46.586Z,3.53
2017-10-18T11:37:14.141Z,3.80
2017-10-18T11:39:41.685Z,4.00
2017-10-18T11:42:09.221Z,5.17
2017-10-18T11:44:36.790Z,3.93
2017-10-18T11:47:04.334Z,4.70
2017-10-18T11:49:31.857Z,3.90
2017-10-18T11:51:59.393Z,5.30
2017-10-18T11:54:26.915Z,3.90
2017-10-18T11:56:55.346Z,3.77
2017-10-18T11:59:24.375Z,5.40
2017-10-18T12:01:52.680Z,3.60
2017-10-18T12:04:20.243Z,3.80
2017-10-18T12:06:47.814Z,3.20
2017-10-18T12:09:15.363Z,4.77
2017-10-18T12:11:42.891Z,5.60
2017-10-18T12:14:11.217Z,4.10
2017-10-18T12:16:38.747Z,3.93
2017-10-18T12:19:06.311Z,4.40
2017-10-18T12:21:33.833Z,5.50
2017-10-18T12:24:01.376Z,4.00
2017-10-18T12:26:28.909Z,4.80
2017-10-18T12:28:57.197Z,4.60
2017-10-18T12:31:24.764Z,5.17
2017-10-18T12:33:52.317Z,6.80
2017-10-18T12:36:19.874Z,4.67
2017-10-18T12:38:47.397Z,6.27
2017-10-18T12:41:14.938Z,5.00
2017-10-18T12:43:42.458Z,5.30
2017-10-18T12:46:09.998Z,4.57
2017-10-18T12:48:37.558Z,7.33
2017-10-18T12:51:05.102Z,7.90
2017-10-18T12:53:32.649Z,4.73
2017-10-18T12:56:00.956Z,4.03
2017-10-18T12:58:28.560Z,4.07
2017-10-18T13:00:56.129Z,4.60
2017-10-18T13:03:24.441Z,4.70
2017-10-18T13:05:52.035Z,12.60
2017-10-18T13:08:19.565Z,5.33
2017-10-18T13:10:47.091Z,5.30
2017-10-18T13:13:15.415Z,5.77
2017-10-18T13:15:42.932Z,4.70
2017-10-18T13:18:11.261Z,5.17
2017-10-18T13:20:38.808Z,10.27
2017-10-18T13:23:06.333Z,5.80
2017-10-18T13:25:34.651Z,5.53
2017-10-18T13:28:02.192Z,4.70
2017-10-18T13:30:29.749Z,6.53
2017-10-18T13:32:57.310Z,5.30
2017-10-18T13:35:24.834Z,4.60
2017-10-18T13:37:52.366Z,7.93
2017-10-18T13:40:19.917Z,5.60
2017-10-18T13:42:47.440Z,6.60
2017-10-18T13:45:14.996Z,3.90
2017-10-18T13:47:43.292Z,4.10
2017-10-18T13:50:10.851Z,5.57
2017-10-18T13:52:38.376Z,4.90
2017-10-18T13:55:06.683Z,4.97
2017-10-18T13:57:34.212Z,5.67
2017-10-18T14:00:02.532Z,4.83
2017-10-18T14:02:30.075Z,7.30
2017-10-18T14:04:57.629Z,5.00
2017-10-18T14:07:25.928Z,7.63
2017-10-18T14:09:53.474Z,4.77
2017-10-18T14:12:21.016Z,5.67
2017-10-18T14:14:49.304Z,4.77
2017-10-18T14:17:17.618Z,4.13
2017-10-18T14:19:45.165Z,6.03
2017-10-18T14:22:12.706Z,4.40
2017-10-18T14:24:40.229Z,4.33
2017-10-18T14:27:07.772Z,3.87
2017-10-18T14:29:35.303Z,4.50
2017-10-18T14:32:02.845Z,4.47
2017-10-18T14:34:30.394Z,5.07
2017-10-18T14:36:58.677Z,4.30
2017-10-18T14:39:27.093Z,7.00
2017-10-18T14:41:54.608Z,5.13
2017-10-18T14:44:22.915Z,4.50
2017-10-18T14:46:50.448Z,6.87
2017-10-18T14:49:18.766Z,7.20
2017-10-18T14:51:46.285Z,5.20
2017-10-18T14:54:13.834Z,5.10
2017-10-18T14:56:42.154Z,8.50
2017-10-18T14:59:09.721Z,6.70
2017-10-18T15:01:37.254Z,8.07
2017-10-18T15:04:04.800Z,5.90
2017-10-18T15:06:33.088Z,5.80
2017-10-18T15:09:00.662Z,5.47
2017-10-18T15:11:28.209Z,6.30
2017-10-18T15:13:55.745Z,6.20
2017-10-18T15:16:24.033Z,9.23
2017-10-18T15:18:51.593Z,8.07
2017-10-18T15:21:19.124Z,5.67
2017-10-18T15:23:46.689Z,6.03
2017-10-18T15:26:15.014Z,6.40
2017-10-18T15:28:42.540Z,5.97
2017-10-18T15:31:10.116Z,5.70
2017-10-18T15:33:37.641Z,6.17
2017-10-18T15:36:05.990Z,5.90
2017-10-18T15:38:34.295Z,6.50
2017-10-18T15:41:02.602Z,5.53
2017-10-18T15:43:30.130Z,13.07
2017-10-18T15:45:58.437Z,6.97
2017-10-18T15:48:25.963Z,6.07
2017-10-18T15:50:54.282Z,5.63
2017-10-18T15:53:21.817Z,7.97
2017-10-18T15:55:50.150Z,5.20
2017-10-18T15:58:17.677Z,6.63
2017-10-18T16:00:45.218Z,5.90
2017-10-18T16:03:12.748Z,4.40
2017-10-18T16:05:40.317Z,5.57
2017-10-18T16:08:08.609Z,5.33
2017-10-18T16:10:36.171Z,7.70
2017-10-18T16:13:03.713Z,6.27
2017-10-18T16:15:32.041Z,6.57
2017-10-18T16:17:59.589Z,9.60
2017-10-18T16:20:27.122Z,6.30
2017-10-18T16:22:54.676Z,5.97
2017-10-18T16:25:22.967Z,5.83
2017-10-18T16:27:50.542Z,9.63
2017-10-18T16:30:18.091Z,5.83
2017-10-18T16:32:45.765Z,5.97
2017-10-18T16:35:13.292Z,7.17
2017-10-18T16:37:41.644Z,7.70
2017-10-18T16:40:09.225Z,5.23
2017-10-18T16:42:37.527Z,8.23
2017-10-18T16:45:05.103Z,5.97
2017-10-18T16:47:32.661Z,5.60
2017-10-18T16:50:00.427Z,8.80
2017-10-18T16:52:27.965Z,7.03
2017-10-18T16:54:55.538Z,6.50
2017-10-18T16:57:23.090Z,6.30
2017-10-18T16:59:50.667Z,5.67
2017-10-18T17:02:18.216Z,5.63
2017-10-18T17:04:45.786Z,9.13
2017-10-18T17:07:13.322Z,5.63
2017-10-18T17:09:40.875Z,5.57
2017-10-18T17:12:08.442Z,6.23
2017-10-18T17:14:36.920Z,8.47
2017-10-18T17:17:04.466Z,6.60
2017-10-18T17:19:32.025Z,6.53
2017-10-18T17:21:59.566Z,7.93
2017-10-18T17:24:27.113Z,6.53
2017-10-18T17:26:55.529Z,7.73
2017-10-18T17:29:23.081Z,5.80
2017-10-18T17:31:51.220Z,5.63
2017-10-18T17:34:19.524Z,5.23
2017-10-18T17:36:47.090Z,7.63
2017-10-18T17:39:14.638Z,7.53
2017-10-18T17:41:42.190Z,8.93
2017-10-18T17:44:09.725Z,10.17
2017-10-18T17:46:38.055Z,6.07
2017-10-18T17:49:05.621Z,6.40
2017-10-18T17:51:33.176Z,10.23
2017-10-18T17:54:00.720Z,8.27
2017-10-18T17:56:28.260Z,9.97
2017-10-18T17:58:56.596Z,10.20
2017-10-18T18:01:24.155Z,8.47
2017-10-18T18:03:51.698Z,9.25
2017-10-18T18:06:19.712Z,11.83
2017-10-18T18:08:48.022Z,11.57
2017-10-18T18:11:15.600Z,6.82
2017-10-18T18:13:43.133Z,7.37
2017-10-18T18:16:10.702Z,10.70
2017-10-18T18:18:38.237Z,7.57
2017-10-18T18:21:06.602Z,9.02
2017-10-18T18:23:34.925Z,8.25
2017-10-18T18:26:02.465Z,9.07
2017-10-18T18:28:30.833Z,10.05
2017-10-18T18:30:59.157Z,9.10
2017-10-18T18:33:26.718Z,11.25
2017-10-18T18:35:54.265Z,8.80
2017-10-18T18:38:23.732Z,9.30
2017-10-18T18:40:52.048Z,12.37
2017-10-18T18:43:19.612Z,12.25
2017-10-18T18:45:47.162Z,9.40
2017-10-18T18:48:14.961Z,14.38
2017-10-18T18:50:42.493Z,9.15
2017-10-18T18:53:10.042Z,11.05
2017-10-18T18:55:37.603Z,8.80
2017-10-18T18:58:05.150Z,14.70
2017-10-18T19:00:33.489Z,12.07
2017-10-18T19:03:01.041Z,10.95
2017-10-18T19:05:28.687Z,11.32
2017-10-18T19:07:56.286Z,10.52
2017-10-18T19:10:23.873Z,12.63
2017-10-18T19:12:51.463Z,17.73
2017-10-18T19:15:19.056Z,15.23
2017-10-18T19:17:46.610Z,16.52
2017-10-18T19:20:14.196Z,18.92
2017-10-18T19:22:42.537Z,12.45
2017-10-18T19:25:10.077Z,15.88
2017-10-18T19:27:37.645Z,16.17
2017-10-18T19:30:05.182Z,16.23
2017-10-18T19:32:32.864Z,13.80
2017-10-18T19:35:00.527Z,12.60
2017-10-18T19:37:28.062Z,11.50
2017-10-18T19:39:55.641Z,16.62
2017-10-18T19:42:23.187Z,14.85
2017-10-18T19:44:50.870Z,12.32
2017-10-18T19:47:18.411Z,14.43
2017-10-18T19:49:45.988Z,19.17
2017-10-18T19:52:13.551Z,12.07
2017-10-18T19:54:41.882Z,12.85
2017-10-18T19:57:09.449Z,15.10
2017-10-18T19:59:37.008Z,13.70
2017-10-18T20:02:04.550Z,16.35
2017-10-18T20:04:32.105Z,12.07
2017-10-18T20:06:59.650Z,14.13
2017-10-18T20:09:27.262Z,14.95
2017-10-18T20:11:55.585Z,14.87
2017-10-18T20:14:23.897Z,14.05
2017-10-18T20:16:51.469Z,14.07
2017-10-18T20:19:19.000Z,14.68
2017-10-18T20:21:46.597Z,16.27
2017-10-18T20:24:14.173Z,14.93
2017-10-18T20:26:41.764Z,18.00
2017-10-18T20:29:09.378Z,16.00
2017-10-18T20:31:36.942Z,14.68
2017-10-18T20:34:04.511Z,12.23
2017-10-18T20:36:32.101Z,11.90
2017-10-18T20:39:00.422Z,16.10
2017-10-18T20:41:29.860Z,16.67
2017-10-18T20:43:57.416Z,14.55
2017-10-18T20:46:24.986Z,12.90
2017-10-18T20:48:52.518Z,14.15
2017-10-18T20:51:20.074Z,13.55
2017-10-18T20:53:47.611Z,11.68
2017-10-18T20:56:15.165Z,13.68
2017-10-18T20:58:42.700Z,11.50
2017-10-18T21:01:11.127Z,14.30
2017-10-18T21:03:38.658Z,13.80
2017-10-18T21:06:06.990Z,16.12
2017-10-18T21:08:34.530Z,13.27
2017-10-18T21:11:02.082Z,14.18
2017-10-18T21:13:30.411Z,13.60
2017-10-18T21:15:57.941Z,13.88
2017-10-18T21:18:25.486Z,14.43
2017-10-18T21:20:53.789Z,14.23
2017-10-18T21:23:21.348Z,12.75
2017-10-18T21:25:48.901Z,13.18
2017-10-18T21:28:16.463Z,11.85
2017-10-18T21:30:43.995Z,15.50
2017-10-18T21:33:12.307Z,14.77
2017-10-18T21:35:39.849Z,16.62
2017-10-18T21:38:07.393Z,14.73
2017-10-18T21:40:35.686Z,17.45
2017-10-18T21:43:03.249Z,13.82
2017-10-18T21:45:30.783Z,14.50
2017-10-18T21:47:58.342Z,17.92
2017-10-18T21:50:25.897Z,15.15
2017-10-18T21:52:53.436Z,16.77
2017-10-18T21:55:21.004Z,15.07
2017-10-18T21:57:49.313Z,17.35
2017-10-18T22:00:16.864Z,16.02
2017-10-18T22:02:44.399Z,16.23
2017-10-18T22:05:12.740Z,13.80
2017-10-18T22:07:40.273Z,12.95
2017-10-18T22:10:07.812Z,17.00
2017-10-18T22:12:35.369Z,11.30
2017-10-18T22:15:02.921Z,15.10
2017-10-18T22:17:31.241Z,10.65
2017-10-18T22:19:58.769Z,13.52
2017-10-18T22:22:26.310Z,10.95
2017-10-18T22:24:54.605Z,13.77
2017-10-18T22:27:22.167Z,10.07
2017-10-18T22:29:49.697Z,11.52
2017-10-18T22:32:18.034Z,16.23
2017-10-18T22:34:46.149Z,13.82
2017-10-18T22:37:13.711Z,14.38
2017-10-18T22:39:42.064Z,13.38
2017-10-18T22:42:11.137Z,14.00
2017-10-18T22:44:38.669Z,12.48
2017-10-18T22:47:06.961Z,13.15
2017-10-18T22:49:34.505Z,13.85
2017-10-18T22:52:02.038Z,12.20
2017-10-18T22:54:29.585Z,12.60
2017-10-18T22:56:57.883Z,12.50
2017-10-18T22:59:25.430Z,14.30
2017-10-18T23:01:52.961Z,16.10
2017-10-18T23:04:20.605Z,10.75
2017-10-18T23:06:48.139Z,14.32
2017-10-18T23:09:15.723Z,16.05
2017-10-18T23:11:43.257Z,11.00
2017-10-18T23:14:10.789Z,12.45
2017-10-18T23:16:39.130Z,11.23
2017-10-18T23:19:06.655Z,12.85
2017-10-18T23:21:34.212Z,14.45
2017-10-18T23:24:01.746Z,12.48
2017-10-18T23:26:30.061Z,11.65
2017-10-18T23:28:57.588Z,13.30
2017-10-18T23:31:25.193Z,14.95
2017-10-18T23:33:52.795Z,13.75
2017-10-18T23:36:20.333Z,10.70
2017-10-18T23:38:47.874Z,15.18
2017-10-18T23:41:15.441Z,12.75
2017-10-18T23:43:42.990Z,14.40
2017-10-18T23:46:11.404Z,12.00
2017-10-18T23:48:38.956Z,13.27
2017-10-18T23:51:06.481Z,11.07
2017-10-18T23:53:34.790Z,14.20
2017-10-18T23:56:02.316Z,12.88
2017-10-18T23:58:30.629Z,13.57
